sensor_id;sensor_type;location;lat;lon;timestamp;pressure;altitude;pressure_sealevel;temperature;humidity
19553;BME280;9420;50.876;7.012;2023-02-03T00:01:21;102171.91;;;17.25;100.00
19553;BME280;9420;50.876;7.012;2023-02-03T00:03:50;102164.25;;;16.62;100.00
19553;BME280;9420;50.876;7.012;2023-02-03T00:06:17;102162.31;;;16.93;100.00
19553;BME280;9420;50.876;7.012;2023-02-03T00:08:44;102159.09;;;16.84;100.00
19553;BME280;9420;50.876;7.012;2023-02-03T00:11:12;102147.84;;;17.02;100.00
19553;BME280;9420;50.876;7.012;2023-02-03T00:13:39;102143.50;;;16.99;100.00
19553;BME280;9420;50.876;7.012;2023-02-03T00:16:06;102135.97;;;17.63;100.00
19553;BME280;9420;50.876;7.012;2023-02-03T00:18:33;102126.91;;;17.17;100.00
19553;BME280;9420;50.876;7.012;2023-02-03T00:21:02;102120.06;;;17.35;100.00
19553;BME280;9420;50.876;7.012;2023-02-03T00:23:29;102122.88;;;17.30;100.00
19553;BME280;9420;50.876;7.012;2023-02-03T00:25:59;102115.28;;;17.20;100.00
19553;BME280;9420;50.876;7.012;2023-02-03T00:28:31;102120.47;;;17.74;98.76
19553;BME280;9420;50.876;7.012;2023-02-03T00:30:58;102130.88;;;17.57;99.65
19553;BME280;9420;50.876;7.012;2023-02-03T00:33:25;102108.94;;;17.48;99.49
19553;BME280;9420;50.876;7.012;2023-02-03T00:35:52;102099.06;;;17.01;100.00
19553;BME280;9420;50.876;7.012;2023-02-03T00:38:21;102082.53;;;17.90;98.05
19553;BME280;9420;50.876;7.012;2023-02-03T00:40:52;102089.97;;;17.82;97.96
19553;BME280;9420;50.876;7.012;2023-02-03T00:43:19;102101.38;;;17.36;100.00
19553;BME280;9420;50.876;7.012;2023-02-03T00:45:46;102087.38;;;17.56;100.00
19553;BME280;9420;50.876;7.012;2023-02-03T00:48:13;102093.00;;;17.47;100.00
19553;BME280;9420;50.876;7.012;2023-02-03T00:50:40;102098.34;;;17.22;100.00
19553;BME280;9420;50.876;7.012;2023-02-03T00:53:07;102096.91;;;17.12;99.76
19553;BME280;9420;50.876;7.012;2023-02-03T00:55:36;102101.19;;;17.67;98.99
19553;BME280;9420;50.876;7.012;2023-02-03T00:58:03;102097.38;;;17.50;98.35
19553;BME280;9420;50.876;7.012;2023-02-03T01:00:30;102076.06;;;17.50;98.45
19553;BME280;9420;50.876;7.012;2023-02-03T01:02:57;102078.19;;;17.88;97.00
19553;BME280;9420;50.876;7.012;2023-02-03T01:05:24;102087.59;;;17.25;98.55
19553;BME280;9420;50.876;7.012;2023-02-03T01:07:51;102088.94;;;17.85;94.95
19553;BME280;9420;50.876;7.012;2023-02-03T01:10:18;102096.25;;;18.03;95.12
19553;BME280;9420;50.876;7.012;2023-02-03T01:12:47;102082.69;;;17.63;96.37
19553;BME280;9420;50.876;7.012;2023-02-03T01:15:14;102085.59;;;17.32;98.21
19553;BME280;9420;50.876;7.012;2023-02-03T01:17:41;102090.19;;;17.52;97.78
19553;BME280;9420;50.876;7.012;2023-02-03T01:20:10;102075.97;;;17.99;94.19
19553;BME280;9420;50.876;7.012;2023-02-03T01:22:38;102087.69;;;17.72;94.31
19553;BME280;9420;50.876;7.012;2023-02-03T01:25:07;102083.91;;;17.29;97.80
19553;BME280;9420;50.876;7.012;2023-02-03T01:27:34;102099.41;;;16.92;100.00
19553;BME280;9420;50.876;7.012;2023-02-03T01:30:03;102103.22;;;17.34;98.78
19553;BME280;9420;50.876;7.012;2023-02-03T01:32:30;102110.78;;;18.17;95.53
19553;BME280;9420;50.876;7.012;2023-02-03T01:34:57;102123.31;;;17.92;94.58
19553;BME280;9420;50.876;7.012;2023-02-03T01:37:25;102133.34;;;16.84;100.00
19553;BME280;9420;50.876;7.012;2023-02-03T01:39:52;102136.94;;;17.09;99.84
19553;BME280;9420;50.876;7.012;2023-02-03T01:42:19;102124.13;;;18.39;92.89
19553;BME280;9420;50.876;7.012;2023-02-03T01:44:48;102127.16;;;17.61;96.09
19553;BME280;9420;50.876;7.012;2023-02-03T01:47:35;102128.44;;;17.51;97.83
19553;BME280;9420;50.876;7.012;2023-02-03T01:50:12;102123.94;;;17.76;93.89
19553;BME280;9420;50.876;7.012;2023-02-03T01:52:43;102135.81;;;18.37;91.67
19553;BME280;9420;50.876;7.012;2023-02-03T01:55:16;102138.28;;;16.96;96.91
19553;BME280;9420;50.876;7.012;2023-02-03T01:57:50;102146.63;;;17.63;96.48
19553;BME280;9420;50.876;7.012;2023-02-03T02:00:18;102140.19;;;17.43;97.65
19553;BME280;9420;50.876;7.012;2023-02-03T02:02:48;102147.06;;;17.24;98.49
19553;BME280;9420;50.876;7.012;2023-02-03T02:05:24;102142.72;;;17.96;95.90
19553;BME280;9420;50.876;7.012;2023-02-03T02:07:55;102142.09;;;17.65;96.04
19553;BME280;9420;50.876;7.012;2023-02-03T02:10:24;102140.06;;;17.96;93.09
19553;BME280;9420;50.876;7.012;2023-02-03T02:12:54;102144.19;;;17.57;96.14
19553;BME280;9420;50.876;7.012;2023-02-03T02:15:32;102121.38;;;17.73;96.17
19553;BME280;9420;50.876;7.012;2023-02-03T02:18:25;102124.13;;;17.71;94.36
19553;BME280;9420;50.876;7.012;2023-02-03T02:21:37;102125.16;;;17.90;95.48
19553;BME280;9420;50.876;7.012;2023-02-03T02:25:03;102124.31;;;17.40;94.95
19553;BME280;9420;50.876;7.012;2023-02-03T02:28:16;102128.50;;;17.95;93.75
19553;BME280;9420;50.876;7.012;2023-02-03T02:34:18;102120.88;;;17.12;98.44
19553;BME280;9420;50.876;7.012;2023-02-03T02:37:00;102127.69;;;16.95;99.50
19553;BME280;9420;50.876;7.012;2023-02-03T02:39:38;102120.56;;;16.95;98.66
19553;BME280;9420;50.876;7.012;2023-02-03T02:42:16;102114.38;;;16.95;98.60
19553;BME280;9420;50.876;7.012;2023-02-03T02:44:54;102100.19;;;17.20;96.89
19553;BME280;9420;50.876;7.012;2023-02-03T02:47:24;102093.13;;;17.19;97.89
19553;BME280;9420;50.876;7.012;2023-02-03T02:50:02;102088.78;;;17.17;97.26
19553;BME280;9420;50.876;7.012;2023-02-03T02:52:36;102083.09;;;17.01;99.21
19553;BME280;9420;50.876;7.012;2023-02-03T02:55:11;102075.97;;;17.28;96.02
19553;BME280;9420;50.876;7.012;2023-02-03T02:57:42;102090.41;;;17.45;95.09
19553;BME280;9420;50.876;7.012;2023-02-03T03:00:12;102081.25;;;16.52;100.00
19553;BME280;9420;50.876;7.012;2023-02-03T03:02:39;102069.03;;;16.72;100.00
19553;BME280;9420;50.876;7.012;2023-02-03T03:05:11;102096.09;;;16.86;98.07
19553;BME280;9420;50.876;7.012;2023-02-03T03:07:45;102100.94;;;17.48;95.97
19553;BME280;9420;50.876;7.012;2023-02-03T03:10:21;102106.25;;;16.99;99.64
19553;BME280;9420;50.876;7.012;2023-02-03T03:12:56;102099.84;;;17.05;99.59
19553;BME280;9420;50.876;7.012;2023-02-03T03:15:28;102087.38;;;17.56;98.97
19553;BME280;9420;50.876;7.012;2023-02-03T03:18:02;102096.38;;;17.77;91.69
19553;BME280;9420;50.876;7.012;2023-02-03T03:20:34;102095.94;;;16.90;99.75
19553;BME280;9420;50.876;7.012;2023-02-03T03:23:10;102090.19;;;17.52;96.11
19553;BME280;9420;50.876;7.012;2023-02-03T03:25:46;102084.47;;;16.62;100.00
19553;BME280;9420;50.876;7.012;2023-02-03T03:28:22;102073.91;;;16.59;100.00
19553;BME280;9420;50.876;7.012;2023-02-03T03:30:52;102073.34;;;16.49;100.00
19553;BME280;9420;50.876;7.012;2023-02-03T03:33:20;102073.13;;;17.08;98.98
19553;BME280;9420;50.876;7.012;2023-02-03T03:35:58;102077.78;;;17.01;99.44
19553;BME280;9420;50.876;7.012;2023-02-03T03:38:33;102078.28;;;16.88;99.00
19553;BME280;9420;50.876;7.012;2023-02-03T03:41:11;102083.41;;;17.18;96.89
19553;BME280;9420;50.876;7.012;2023-02-03T03:43:44;102088.22;;;17.07;99.70
19553;BME280;9420;50.876;7.012;2023-02-03T03:46:17;102092.22;;;16.68;100.00
19553;BME280;9420;50.876;7.012;2023-02-03T03:48:53;102079.66;;;17.48;96.96
19553;BME280;9420;50.876;7.012;2023-02-03T03:51:30;102070.81;;;16.45;100.00
19553;BME280;9420;50.876;7.012;2023-02-03T03:54:04;102079.19;;;17.11;100.00
19553;BME280;9420;50.876;7.012;2023-02-03T03:56:38;102075.75;;;16.83;100.00
19553;BME280;9420;50.876;7.012;2023-02-03T03:59:11;102089.59;;;16.94;100.00
19553;BME280;9420;50.876;7.012;2023-02-03T04:01:40;102090.50;;;17.18;100.00
19553;BME280;9420;50.876;7.012;2023-02-03T04:04:10;102087.63;;;16.73;99.92
19553;BME280;9420;50.876;7.012;2023-02-03T04:06:40;102097.22;;;17.03;100.00
19553;BME280;9420;50.876;7.012;2023-02-03T04:09:07;102085.41;;;17.12;100.00
19553;BME280;9420;50.876;7.012;2023-02-03T04:11:34;102079.84;;;16.93;100.00
19553;BME280;9420;50.876;7.012;2023-02-03T04:14:34;102097.59;;;16.66;98.86
19553;BME280;9420;50.876;7.012;2023-02-03T04:17:03;102082.44;;;16.95;100.00
19553;BME280;9420;50.876;7.012;2023-02-03T04:19:36;102064.31;;;16.81;98.34
19553;BME280;9420;50.876;7.012;2023-02-03T04:22:04;102066.97;;;16.81;100.00
19553;BME280;9420;50.876;7.012;2023-02-03T04:24:31;102060.97;;;16.75;100.00
19553;BME280;9420;50.876;7.012;2023-02-03T04:26:58;102055.38;;;16.84;96.81
19553;BME280;9420;50.876;7.012;2023-02-03T04:29:25;102064.00;;;17.15;98.18
19553;BME280;9420;50.876;7.012;2023-02-03T04:31:52;102065.63;;;17.19;98.59
19553;BME280;9420;50.876;7.012;2023-02-03T04:34:19;102073.03;;;17.35;94.89
19553;BME280;9420;50.876;7.012;2023-02-03T04:36:46;102086.00;;;16.69;100.00
19553;BME280;9420;50.876;7.012;2023-02-03T04:39:15;102071.28;;;17.10;96.93
19553;BME280;9420;50.876;7.012;2023-02-03T04:41:42;102061.28;;;17.16;96.11
19553;BME280;9420;50.876;7.012;2023-02-03T04:44:09;102054.63;;;17.29;96.29
19553;BME280;9420;50.876;7.012;2023-02-03T04:46:36;102048.56;;;16.75;100.00
19553;BME280;9420;50.876;7.012;2023-02-03T04:49:03;102052.44;;;17.40;97.13
19553;BME280;9420;50.876;7.012;2023-02-03T04:51:30;102057.84;;;16.34;100.00
19553;BME280;9420;50.876;7.012;2023-02-03T04:53:57;102073.03;;;17.35;96.73
19553;BME280;9420;50.876;7.012;2023-02-03T04:56:26;102075.19;;;17.74;91.66
19553;BME280;9420;50.876;7.012;2023-02-03T04:58:53;102064.16;;;17.83;92.13
19553;BME280;9420;50.876;7.012;2023-02-03T05:01:20;102071.53;;;17.53;91.90
19553;BME280;9420;50.876;7.012;2023-02-03T05:03:47;102079.19;;;17.11;96.54
19553;BME280;9420;50.876;7.012;2023-02-03T05:06:14;102088.88;;;17.14;96.02
19553;BME280;9420;50.876;7.012;2023-02-03T05:08:41;102073.97;;;16.57;98.56
19553;BME280;9420;50.876;7.012;2023-02-03T05:11:08;102075.13;;;17.01;96.76
19553;BME280;9420;50.876;7.012;2023-02-03T05:13:36;102062.97;;;16.94;95.81
19553;BME280;9420;50.876;7.012;2023-02-03T05:16:04;102067.78;;;16.83;97.91
19553;BME280;9420;50.876;7.012;2023-02-03T05:18:31;102056.78;;;17.18;96.90
19553;BME280;9420;50.876;7.012;2023-02-03T05:20:58;102075.16;;;16.75;98.74
19553;BME280;9420;50.876;7.012;2023-02-03T05:23:25;102088.22;;;16.55;99.14
19553;BME280;9420;50.876;7.012;2023-02-03T05:25:53;102061.53;;;16.84;100.00
19553;BME280;9420;50.876;7.012;2023-02-03T05:28:20;102062.72;;;18.19;92.53
19553;BME280;9420;50.876;7.012;2023-02-03T05:30:49;102059.44;;;17.18;97.21
19553;BME280;9420;50.876;7.012;2023-02-03T05:33:16;102058.72;;;17.38;96.49
19553;BME280;9420;50.876;7.012;2023-02-03T05:35:43;102062.34;;;16.86;98.94
19553;BME280;9420;50.876;7.012;2023-02-03T05:38:10;102080.41;;;16.23;100.00
19553;BME280;9420;50.876;7.012;2023-02-03T05:40:37;102050.94;;;18.24;93.09
19553;BME280;9420;50.876;7.012;2023-02-03T05:43:22;102040.06;;;16.64;98.15
19553;BME280;9420;50.876;7.012;2023-02-03T05:45:50;102056.78;;;17.18;96.81
19553;BME280;9420;50.876;7.012;2023-02-03T05:48:17;102046.81;;;16.74;99.18
19553;BME280;9420;50.876;7.012;2023-02-03T05:50:44;102048.13;;;17.36;95.99
19553;BME280;9420;50.876;7.012;2023-02-03T05:53:11;102041.06;;;16.86;96.93
19553;BME280;9420;50.876;7.012;2023-02-03T05:55:39;102044.97;;;16.76;98.25
19553;BME280;9420;50.876;7.012;2023-02-03T05:58:06;102050.50;;;16.96;96.59
19553;BME280;9420;50.876;7.012;2023-02-03T06:00:34;102061.84;;;17.51;94.33
19553;BME280;9420;50.876;7.012;2023-02-03T06:03:03;102052.16;;;17.23;94.20
19553;BME280;9420;50.876;7.012;2023-02-03T06:05:32;102067.25;;;16.72;97.69
19553;BME280;9420;50.876;7.012;2023-02-03T06:08:00;102059.53;;;17.88;91.01
19553;BME280;9420;50.876;7.012;2023-02-03T06:10:27;102058.56;;;16.93;94.41
19553;BME280;9420;50.876;7.012;2023-02-03T06:12:54;102062.47;;;16.83;95.07
19553;BME280;9420;50.876;7.012;2023-02-03T06:15:21;102072.69;;;16.95;96.04
19553;BME280;9420;50.876;7.012;2023-02-03T06:17:48;102067.59;;;17.63;91.94
19553;BME280;9420;50.876;7.012;2023-02-03T06:20:19;102061.22;;;17.18;93.26
19553;BME280;9420;50.876;7.012;2023-02-03T06:22:46;102069.97;;;17.71;91.51
19553;BME280;9420;50.876;7.012;2023-02-03T06:25:13;102071.09;;;17.64;91.28
19553;BME280;9420;50.876;7.012;2023-02-03T06:27:40;102076.84;;;17.53;91.58
19553;BME280;9420;50.876;7.012;2023-02-03T06:30:10;102073.72;;;16.91;93.18
19553;BME280;9420;50.876;7.012;2023-02-03T06:32:37;102076.78;;;16.79;95.64
19553;BME280;9420;50.876;7.012;2023-02-03T06:35:05;102065.41;;;17.00;94.60
19553;BME280;9420;50.876;7.012;2023-02-03T06:37:33;102075.75;;;17.34;91.91
19553;BME280;9420;50.876;7.012;2023-02-03T06:40:02;102069.75;;;16.23;95.90
19553;BME280;9420;50.876;7.012;2023-02-03T06:42:30;102066.28;;;17.25;93.18
19553;BME280;9420;50.876;7.012;2023-02-03T06:44:57;102072.50;;;17.51;90.66
19553;BME280;9420;50.876;7.012;2023-02-03T06:47:24;102079.91;;;17.41;91.07
19553;BME280;9420;50.876;7.012;2023-02-03T06:49:51;102091.66;;;17.11;91.91
19553;BME280;9420;50.876;7.012;2023-02-03T06:52:18;102076.16;;;17.71;90.84
19553;BME280;9420;50.876;7.012;2023-02-03T06:54:47;102087.78;;;17.44;89.39
19553;BME280;9420;50.876;7.012;2023-02-03T06:57:14;102077.47;;;17.35;90.92
19553;BME280;9420;50.876;7.012;2023-02-03T06:59:41;102072.28;;;17.57;87.62
19553;BME280;9420;50.876;7.012;2023-02-03T07:02:10;102074.56;;;17.42;89.75
19553;BME280;9420;50.876;7.012;2023-02-03T07:04:37;102083.47;;;17.17;91.43
19553;BME280;9420;50.876;7.012;2023-02-03T07:07:04;102089.44;;;17.23;88.66
19553;BME280;9420;50.876;7.012;2023-02-03T07:09:31;102067.69;;;17.60;90.19
19553;BME280;9420;50.876;7.012;2023-02-03T07:12:00;102066.44;;;16.96;92.32
19553;BME280;9420;50.876;7.012;2023-02-03T07:14:27;102067.94;;;17.05;91.76
19553;BME280;9420;50.876;7.012;2023-02-03T07:16:56;102083.75;;;16.83;93.12
19553;BME280;9420;50.876;7.012;2023-02-03T07:19:23;102077.78;;;17.01;92.74
19553;BME280;9420;50.876;7.012;2023-02-03T07:21:50;102068.69;;;17.81;88.66
19553;BME280;9420;50.876;7.012;2023-02-03T07:24:17;102058.19;;;17.04;92.38
19553;BME280;9420;50.876;7.012;2023-02-03T07:26:44;102071.78;;;16.70;94.38
19553;BME280;9420;50.876;7.012;2023-02-03T07:29:12;102063.13;;;16.90;94.38
19553;BME280;9420;50.876;7.012;2023-02-03T07:31:39;102054.88;;;16.97;93.18
19553;BME280;9420;50.876;7.012;2023-02-03T07:34:06;102060.09;;;17.50;92.16
19553;BME280;9420;50.876;7.012;2023-02-03T07:36:34;102080.44;;;17.01;93.48
19553;BME280;9420;50.876;7.012;2023-02-03T07:39:01;102077.22;;;16.67;95.69
19553;BME280;9420;50.876;7.012;2023-02-03T07:41:28;102090.06;;;16.53;95.67
19553;BME280;9420;50.876;7.012;2023-02-03T07:43:55;102076.03;;;16.48;96.44
19553;BME280;9420;50.876;7.012;2023-02-03T07:46:24;102093.03;;;16.70;94.37
19553;BME280;9420;50.876;7.012;2023-02-03T07:48:51;102101.88;;;16.43;95.91
19553;BME280;9420;50.876;7.012;2023-02-03T07:51:19;102080.31;;;18.01;87.16
19553;BME280;9420;50.876;7.012;2023-02-03T07:53:46;102074.53;;;17.67;87.44
19553;BME280;9420;50.876;7.012;2023-02-03T07:56:13;102065.84;;;17.62;89.99
19553;BME280;9420;50.876;7.012;2023-02-03T07:58:40;102082.84;;;18.27;84.94
19553;BME280;9420;50.876;7.012;2023-02-03T08:01:14;102089.69;;;17.16;90.71
19553;BME280;9420;50.876;7.012;2023-02-03T08:03:44;102093.16;;;16.93;94.56
19553;BME280;9420;50.876;7.012;2023-02-03T08:06:11;102091.81;;;17.56;91.44
19553;BME280;9420;50.876;7.012;2023-02-03T08:08:38;102089.38;;;17.25;93.91
19553;BME280;9420;50.876;7.012;2023-02-03T08:11:05;102103.00;;;17.16;92.13
19553;BME280;9420;50.876;7.012;2023-02-03T08:13:33;102091.25;;;18.17;87.13
19553;BME280;9420;50.876;7.012;2023-02-03T08:16:00;102088.34;;;17.54;89.02
19553;BME280;9420;50.876;7.012;2023-02-03T08:18:28;102099.53;;;17.14;89.99
19553;BME280;9420;50.876;7.012;2023-02-03T08:20:56;102103.72;;;17.45;90.59
19553;BME280;9420;50.876;7.012;2023-02-03T08:23:23;102085.28;;;16.90;93.06
19553;BME280;9420;50.876;7.012;2023-02-03T08:25:51;102094.81;;;17.94;89.38
19553;BME280;9420;50.876;7.012;2023-02-03T08:28:19;102095.28;;;17.08;92.76
19553;BME280;9420;50.876;7.012;2023-02-03T08:30:46;102097.56;;;17.43;91.97
19553;BME280;9420;50.876;7.012;2023-02-03T08:33:13;102109.19;;;17.16;91.24
19553;BME280;9420;50.876;7.012;2023-02-03T08:35:44;102106.03;;;17.05;93.65
19553;BME280;9420;50.876;7.012;2023-02-03T08:38:13;102106.59;;;17.39;91.05
19553;BME280;9420;50.876;7.012;2023-02-03T08:40:40;102124.16;;;16.94;91.47
19553;BME280;9420;50.876;7.012;2023-02-03T08:43:07;102108.44;;;17.37;91.20
19553;BME280;9420;50.876;7.012;2023-02-03T08:45:34;102123.31;;;17.18;90.30
19553;BME280;9420;50.876;7.012;2023-02-03T08:48:02;102145.47;;;16.66;94.32
19553;BME280;9420;50.876;7.012;2023-02-03T08:50:29;102127.81;;;17.42;92.80
19553;BME280;9420;50.876;7.012;2023-02-03T08:52:56;102132.19;;;17.43;92.58
19553;BME280;9420;50.876;7.012;2023-02-03T08:55:24;102137.63;;;16.62;96.87
19553;BME280;9420;50.876;7.012;2023-02-03T08:57:51;102134.59;;;16.74;96.60
19553;BME280;9420;50.876;7.012;2023-02-03T09:00:20;102134.47;;;17.05;96.07
19553;BME280;9420;50.876;7.012;2023-02-03T09:02:47;102130.41;;;17.19;94.55
19553;BME280;9420;50.876;7.012;2023-02-03T09:05:14;102134.28;;;17.60;94.95
19553;BME280;9420;50.876;7.012;2023-02-03T09:07:43;102120.41;;;16.74;100.00
19553;BME280;9420;50.876;7.012;2023-02-03T09:10:10;102121.31;;;17.00;99.69
19553;BME280;9420;50.876;7.012;2023-02-03T09:12:38;102127.38;;;17.04;98.18
19553;BME280;9420;50.876;7.012;2023-02-03T09:15:06;102141.13;;;17.16;96.99
19553;BME280;9420;50.876;7.012;2023-02-03T09:17:33;102129.06;;;17.06;98.20
19553;BME280;9420;50.876;7.012;2023-02-03T09:20:00;102126.41;;;17.57;94.34
19553;BME280;9420;50.876;7.012;2023-02-03T09:22:27;102138.53;;;16.61;100.00
19553;BME280;9420;50.876;7.012;2023-02-03T09:24:54;102136.75;;;16.89;99.26
19553;BME280;9420;50.876;7.012;2023-02-03T09:27:22;102131.03;;;17.26;100.00
19553;BME280;9420;50.876;7.012;2023-02-03T09:29:50;102130.63;;;17.13;98.16
19553;BME280;9420;50.876;7.012;2023-02-03T09:32:17;102123.00;;;17.03;100.00
19553;BME280;9420;50.876;7.012;2023-02-03T09:34:44;102129.44;;;17.46;96.00
19553;BME280;9420;50.876;7.012;2023-02-03T09:37:11;102121.16;;;17.05;100.00
19553;BME280;9420;50.876;7.012;2023-02-03T09:39:38;102120.06;;;16.84;100.00
19553;BME280;9420;50.876;7.012;2023-02-03T09:42:27;102124.72;;;17.55;99.45
19553;BME280;9420;50.876;7.012;2023-02-03T09:45:13;102113.47;;;18.39;95.32
19553;BME280;9420;50.876;7.012;2023-02-03T09:47:43;102107.97;;;17.99;93.60
19553;BME280;9420;50.876;7.012;2023-02-03T09:50:19;102116.94;;;17.48;96.56
19553;BME280;9420;50.876;7.012;2023-02-03T09:52:48;102112.47;;;17.74;97.99
19553;BME280;9420;50.876;7.012;2023-02-03T09:55:25;102117.03;;;16.68;100.00
19553;BME280;9420;50.876;7.012;2023-02-03T09:58:01;102110.75;;;17.23;99.56
19553;BME280;9420;50.876;7.012;2023-02-03T10:00:35;102115.13;;;17.51;100.00
19553;BME280;9420;50.876;7.012;2023-02-03T10:03:13;102113.66;;;17.16;99.96
19553;BME280;9420;50.876;7.012;2023-02-03T10:06:19;102116.75;;;17.55;100.00
19553;BME280;9420;50.876;7.012;2023-02-03T10:09:22;102128.75;;;16.63;100.00
19553;BME280;9420;50.876;7.012;2023-02-03T10:12:33;102130.53;;;17.66;100.00
19553;BME280;9420;50.876;7.012;2023-02-03T10:15:33;102144.88;;;17.62;99.91
19553;BME280;9420;50.876;7.012;2023-02-03T10:18:08;102139.91;;;17.53;100.00
19553;BME280;9420;50.876;7.012;2023-02-03T10:20:42;102135.66;;;17.21;100.00
19553;BME280;9420;50.876;7.012;2023-02-03T10:23:16;102153.94;;;17.05;100.00
19553;BME280;9420;50.876;7.012;2023-02-03T10:25:50;102155.28;;;16.92;100.00
19553;BME280;9420;50.876;7.012;2023-02-03T10:28:22;102159.41;;;18.01;100.00
19553;BME280;9420;50.876;7.012;2023-02-03T10:30:55;102174.19;;;16.83;100.00
19553;BME280;9420;50.876;7.012;2023-02-03T10:33:26;102171.22;;;17.44;100.00
19553;BME280;9420;50.876;7.012;2023-02-03T10:36:00;102166.09;;;17.65;100.00
19553;BME280;9420;50.876;7.012;2023-02-03T10:38:49;102159.44;;;18.22;100.00
19553;BME280;9420;50.876;7.012;2023-02-03T10:41:20;102153.28;;;18.22;100.00
19553;BME280;9420;50.876;7.012;2023-02-03T10:43:49;102144.63;;;17.18;100.00
19553;BME280;9420;50.876;7.012;2023-02-03T10:46:25;102138.75;;;17.33;100.00
19553;BME280;9420;50.876;7.012;2023-02-03T10:48:53;102153.69;;;16.59;100.00
19553;BME280;9420;50.876;7.012;2023-02-03T10:51:23;102170.31;;;17.19;100.00
19553;BME280;9420;50.876;7.012;2023-02-03T10:53:51;102142.47;;;18.02;100.00
19553;BME280;9420;50.876;7.012;2023-02-03T10:56:22;102145.34;;;18.42;100.00
19553;BME280;9420;50.876;7.012;2023-02-03T10:58:53;102132.25;;;18.59;100.00
19553;BME280;9420;50.876;7.012;2023-02-03T11:01:26;102123.44;;;18.57;100.00
19553;BME280;9420;50.876;7.012;2023-02-03T11:03:57;102128.34;;;18.23;100.00
19553;BME280;9420;50.876;7.012;2023-02-03T11:06:26;102113.94;;;18.27;100.00
19553;BME280;9420;50.876;7.012;2023-02-03T11:08:54;102110.47;;;19.12;100.00
19553;BME280;9420;50.876;7.012;2023-02-03T11:11:25;102131.97;;;18.44;100.00
19553;BME280;9420;50.876;7.012;2023-02-03T11:13:54;102126.31;;;18.74;100.00
19553;BME280;9420;50.876;7.012;2023-02-03T11:16:23;102120.09;;;18.52;100.00
19553;BME280;9420;50.876;7.012;2023-02-03T11:18:56;102121.06;;;18.71;100.00
19553;BME280;9420;50.876;7.012;2023-02-03T11:21:29;102136.47;;;17.47;100.00
19553;BME280;9420;50.876;7.012;2023-02-03T11:24:05;102134.22;;;17.62;100.00
19553;BME280;9420;50.876;7.012;2023-02-03T11:26:40;102121.84;;;17.34;100.00
19553;BME280;9420;50.876;7.012;2023-02-03T11:29:17;102115.94;;;18.22;100.00
19553;BME280;9420;50.876;7.012;2023-02-03T11:31:51;102117.63;;;17.55;100.00
19553;BME280;9420;50.876;7.012;2023-02-03T11:34:23;102109.09;;;17.69;100.00
19553;BME280;9420;50.876;7.012;2023-02-03T11:36:51;102106.88;;;16.81;100.00
19553;BME280;9420;50.876;7.012;2023-02-03T11:39:26;102110.81;;;17.20;100.00
19553;BME280;9420;50.876;7.012;2023-02-03T11:41:54;102107.75;;;16.82;100.00
19553;BME280;9420;50.876;7.012;2023-02-03T11:44:24;102109.09;;;17.69;100.00
19553;BME280;9420;50.876;7.012;2023-02-03T11:46:59;102118.03;;;17.68;100.00
19553;BME280;9420;50.876;7.012;2023-02-03T11:50:04;102125.75;;;17.51;100.00
19553;BME280;9420;50.876;7.012;2023-02-03T11:52:51;102141.66;;;17.01;100.00
19553;BME280;9420;50.876;7.012;2023-02-03T11:55:34;102144.09;;;17.33;100.00
19553;BME280;9420;50.876;7.012;2023-02-03T11:58:52;102148.34;;;18.35;100.00
19553;BME280;9420;50.876;7.012;2023-02-03T12:01:51;102139.13;;;17.74;100.00
19553;BME280;9420;50.876;7.012;2023-02-03T12:04:51;102131.25;;;18.17;100.00
19553;BME280;9420;50.876;7.012;2023-02-03T12:07:58;102126.94;;;17.67;100.00
19553;BME280;9420;50.876;7.012;2023-02-03T12:10:43;102126.94;;;17.42;100.00
19553;BME280;9420;50.876;7.012;2023-02-03T12:13:33;102125.81;;;17.97;100.00
19553;BME280;9420;50.876;7.012;2023-02-03T12:16:21;102122.72;;;17.35;100.00
19553;BME280;9420;50.876;7.012;2023-02-03T12:19:07;102118.69;;;18.42;100.00
19553;BME280;9420;50.876;7.012;2023-02-03T12:21:43;102119.63;;;17.47;100.00
19553;BME280;9420;50.876;7.012;2023-02-03T12:24:36;102116.56;;;17.59;100.00
19553;BME280;9420;50.876;7.012;2023-02-03T12:27:24;102124.19;;;17.43;100.00
19553;BME280;9420;50.876;7.012;2023-02-03T12:30:01;102125.44;;;18.06;100.00
19553;BME280;9420;50.876;7.012;2023-02-03T12:32:36;102118.75;;;17.22;100.00
19553;BME280;9420;50.876;7.012;2023-02-03T12:35:17;102100.34;;;18.56;100.00
19553;BME280;9420;50.876;7.012;2023-02-03T12:37:49;102114.53;;;17.16;100.00
19553;BME280;9420;50.876;7.012;2023-02-03T12:40:26;102119.75;;;17.44;100.00
19553;BME280;9420;50.876;7.012;2023-02-03T12:43:00;102108.31;;;17.90;100.00
19553;BME280;9420;50.876;7.012;2023-02-03T12:45:33;102110.81;;;17.94;100.00
19553;BME280;9420;50.876;7.012;2023-02-03T12:48:09;102118.69;;;17.50;100.00
19553;BME280;9420;50.876;7.012;2023-02-03T12:50:41;102123.44;;;17.15;100.00
19553;BME280;9420;50.876;7.012;2023-02-03T12:53:17;102129.84;;;17.84;100.00
19553;BME280;9420;50.876;7.012;2023-02-03T12:55:51;102120.41;;;17.75;100.00
19553;BME280;9420;50.876;7.012;2023-02-03T12:58:30;102124.69;;;18.02;100.00
19553;BME280;9420;50.876;7.012;2023-02-03T13:01:04;102116.59;;;17.58;100.00
19553;BME280;9420;50.876;7.012;2023-02-03T13:03:41;102112.59;;;17.21;100.00
19553;BME280;9420;50.876;7.012;2023-02-03T13:06:16;102102.75;;;17.96;100.00
19553;BME280;9420;50.876;7.012;2023-02-03T13:08:55;102116.94;;;18.41;100.00
19553;BME280;9420;50.876;7.012;2023-02-03T13:11:33;102114.34;;;18.18;100.00
19553;BME280;9420;50.876;7.012;2023-02-03T13:14:13;102120.41;;;18.21;100.00
19553;BME280;9420;50.876;7.012;2023-02-03T13:16:44;102118.72;;;17.96;100.00
19553;BME280;9420;50.876;7.012;2023-02-03T13:19:21;102125.38;;;17.61;100.00
19553;BME280;9420;50.876;7.012;2023-02-03T13:21:50;102124.66;;;17.56;100.00
19553;BME280;9420;50.876;7.012;2023-02-03T13:24:22;102113.16;;;18.02;100.00